createdAt,value
2023-05-01T00:02:16.671Z,3.17
2023-05-01T00:04:44.174Z,4.13
2023-05-01T00:07:12.046Z,3.72
2023-05-01T00:09:39.394Z,3.50
2023-05-01T00:12:06.754Z,3.23
2023-05-01T00:14:34.088Z,4.03
2023-05-01T00:17:01.459Z,4.65
2023-05-01T00:19:28.778Z,5.65
2023-05-01T00:21:56.400Z,3.53
2023-05-01T00:24:24.149Z,3.90
2023-05-01T00:26:51.423Z,2.72
2023-05-01T00:29:18.739Z,4.95
2023-05-01T00:31:47.401Z,3.65
2023-05-01T00:34:14.756Z,3.10
2023-05-01T00:36:42.192Z,2.73
2023-05-01T00:39:09.850Z,4.15
2023-05-01T00:41:37.316Z,5.80
2023-05-01T00:44:04.693Z,4.07
2023-05-01T00:46:33.249Z,3.50
2023-05-01T00:49:01.505Z,4.13
2023-05-01T00:51:30.044Z,5.35
2023-05-01T00:53:59.325Z,4.15
2023-05-01T00:56:26.768Z,4.63
2023-05-01T00:58:54.779Z,4.80
2023-05-01T01:01:22.358Z,3.57
2023-05-01T01:03:54.399Z,3.47
2023-05-01T01:06:42.291Z,3.38
2023-05-01T01:09:15.576Z,4.20
2023-05-01T01:11:42.832Z,3.40
2023-05-01T01:14:18.204Z,3.73
2023-05-01T01:17:12.022Z,5.55
2023-05-01T01:19:42.500Z,6.50
2023-05-01T01:22:12.997Z,3.05
2023-05-01T01:24:43.053Z,3.28
2023-05-01T01:27:13.523Z,6.23
2023-05-01T01:29:58.025Z,4.70
2023-05-01T01:32:40.819Z,5.88
2023-05-01T01:35:13.539Z,3.55
2023-05-01T01:37:43.650Z,4.60
2023-05-01T01:40:17.679Z,3.57
2023-05-01T01:42:52.885Z,3.03
2023-05-01T01:45:23.926Z,4.90
2023-05-01T01:47:52.747Z,6.47
2023-05-01T01:50:21.491Z,3.85
2023-05-01T01:52:50.428Z,3.13
2023-05-01T01:55:18.710Z,4.35
2023-05-01T01:57:46.158Z,7.65
2023-05-01T02:00:14.368Z,5.40
2023-05-01T02:02:45.700Z,3.70
2023-05-01T02:05:15.487Z,3.80
2023-05-01T02:07:43.793Z,5.97
2023-05-01T02:10:13.914Z,4.72
2023-05-01T02:12:46.853Z,3.25
2023-05-01T02:15:14.696Z,3.50
2023-05-01T02:17:42.401Z,4.50
2023-05-01T02:20:12.349Z,4.80
2023-05-01T02:22:41.150Z,4.35
2023-05-01T02:25:13.186Z,3.97
2023-05-01T02:27:41.911Z,4.65
2023-05-01T02:30:09.744Z,3.87
2023-05-01T02:32:37.812Z,3.38
2023-05-01T02:35:05.447Z,3.33
2023-05-01T02:37:32.918Z,5.72
2023-05-01T02:40:00.712Z,6.90
2023-05-01T02:42:29.487Z,5.00
2023-05-01T02:45:19.302Z,5.22
2023-05-01T02:47:49.266Z,5.25
2023-05-01T02:50:17.471Z,3.38
2023-05-01T02:52:45.553Z,6.10
2023-05-01T02:55:31.459Z,3.30
2023-05-01T02:57:59.682Z,5.97
2023-05-01T03:00:27.908Z,4.28
2023-05-01T03:02:55.372Z,4.00
2023-05-01T03:05:22.891Z,3.63
2023-05-01T03:07:51.261Z,5.10
2023-05-01T03:10:18.669Z,3.78
2023-05-01T03:12:46.001Z,5.22
2023-05-01T03:15:13.415Z,4.60
2023-05-01T03:17:40.793Z,2.80
2023-05-01T03:20:09.570Z,5.00
2023-05-01T03:22:37.097Z,4.30
2023-05-01T03:25:04.476Z,5.25
2023-05-01T03:27:32.888Z,4.75
2023-05-01T03:30:00.308Z,4.75
2023-05-01T03:32:29.582Z,5.30
2023-05-01T03:34:57.719Z,4.53
2023-05-01T03:37:25.932Z,4.15
2023-05-01T03:39:54.342Z,3.92
2023-05-01T03:42:57.263Z,3.85
2023-05-01T03:45:24.706Z,4.27
2023-05-01T03:47:52.346Z,4.10
2023-05-01T03:50:20.219Z,7.65
2023-05-01T03:52:50.157Z,5.82
2023-05-01T03:55:17.702Z,6.80
2023-05-01T03:57:47.656Z,6.03
2023-05-01T04:00:15.253Z,7.88
2023-05-01T04:02:47.752Z,4.05
2023-05-01T04:05:21.574Z,4.22
2023-05-01T04:07:53.702Z,6.20
2023-05-01T04:10:21.132Z,4.63
2023-05-01T04:12:56.947Z,7.47
2023-05-01T04:15:24.304Z,5.38
2023-05-01T04:17:52.616Z,3.97
2023-05-01T04:20:20.334Z,4.97
2023-05-01T04:22:47.805Z,4.97
2023-05-01T04:25:15.188Z,7.30
2023-05-01T04:27:43.697Z,5.32
2023-05-01T04:30:11.500Z,6.22
2023-05-01T04:32:39.124Z,6.28
2023-05-01T04:35:06.787Z,5.30
2023-05-01T04:37:35.711Z,4.40
2023-05-01T04:40:04.556Z,6.47
2023-05-01T04:42:34.919Z,4.75
2023-05-01T04:45:04.223Z,8.15
2023-05-01T04:47:35.476Z,3.03
2023-05-01T04:50:02.808Z,4.28
2023-05-01T04:52:31.718Z,3.13
2023-05-01T04:55:01.780Z,4.00
2023-05-01T04:57:31.449Z,4.25
2023-05-01T04:59:59.789Z,4.37
2023-05-01T05:02:27.258Z,5.32
2023-05-01T05:04:54.611Z,4.15
2023-05-01T05:07:22.823Z,3.30
2023-05-01T05:10:09.033Z,5.65
2023-05-01T05:12:36.685Z,4.53
2023-05-01T05:15:04.183Z,7.75
2023-05-01T05:17:31.727Z,4.03
2023-05-01T05:19:59.398Z,4.40
2023-05-01T05:22:26.836Z,8.95
2023-05-01T05:25:12.677Z,5.30
2023-05-01T05:27:40.205Z,4.97
2023-05-01T05:30:07.906Z,3.72
2023-05-01T05:32:37.858Z,4.97
2023-05-01T05:35:06.532Z,6.32
2023-05-01T05:37:34.172Z,5.20
2023-05-01T05:40:01.999Z,4.32
2023-05-01T05:42:34.101Z,7.55
2023-05-01T05:45:05.841Z,7.43
2023-05-01T05:47:33.385Z,5.85
2023-05-01T05:50:01.760Z,5.80
2023-05-01T05:52:30.048Z,5.30
2023-05-01T05:54:59.080Z,7.93
2023-05-01T05:57:26.419Z,7.20
2023-05-01T05:59:54.719Z,5.25
2023-05-01T06:02:25.221Z,5.93
2023-05-01T06:04:52.659Z,4.57
2023-05-01T06:07:26.139Z,6.55
2023-05-01T06:09:53.583Z,9.50
2023-05-01T06:12:21.594Z,6.65
2023-05-01T06:14:49.172Z,6.87
2023-05-01T06:17:17.098Z,5.72
2023-05-01T06:19:44.372Z,4.82
2023-05-01T06:22:12.518Z,6.13
2023-05-01T06:24:50.948Z,4.65
2023-05-01T06:27:18.377Z,6.43
2023-05-01T06:29:45.878Z,7.55
2023-05-01T06:32:13.307Z,6.38
2023-05-01T06:34:40.640Z,5.03
2023-05-01T06:37:08.022Z,10.35
2023-05-01T06:39:35.724Z,6.90
2023-05-01T06:42:03.419Z,7.50
2023-05-01T06:44:34.174Z,8.32
2023-05-01T06:47:02.567Z,6.95
2023-05-01T06:49:29.879Z,7.55
2023-05-01T06:51:57.264Z,5.60
2023-05-01T06:54:24.651Z,7.18
2023-05-01T06:56:51.973Z,11.73
2023-05-01T06:59:19.366Z,5.18
2023-05-01T07:01:46.786Z,5.88
2023-05-01T07:04:14.281Z,6.53
2023-05-01T07:06:41.644Z,5.70
2023-05-01T07:09:09.091Z,4.30
2023-05-01T07:11:37.615Z,7.32
2023-05-01T07:14:04.964Z,6.90
2023-05-01T07:16:32.418Z,14.17
2023-05-01T07:18:59.779Z,11.45
2023-05-01T07:21:27.195Z,10.50
2023-05-01T07:23:54.541Z,8.65
2023-05-01T07:26:21.818Z,14.77
2023-05-01T07:28:49.121Z,11.30
2023-05-01T07:31:17.015Z,6.03
2023-05-01T07:33:44.383Z,7.90
2023-05-01T07:36:11.873Z,9.93
2023-05-01T07:38:39.324Z,7.53
2023-05-01T07:41:06.666Z,9.57
2023-05-01T07:43:34.137Z,13.45
2023-05-01T07:46:01.976Z,7.15
2023-05-01T07:48:29.570Z,9.90
2023-05-01T07:50:57.139Z,8.60
2023-05-01T07:53:24.710Z,9.20
2023-05-01T07:55:52.010Z,6.80
2023-05-01T07:58:19.431Z,10.02
2023-05-01T08:00:46.811Z,8.52
2023-05-01T08:03:14.312Z,5.95
2023-05-01T08:05:42.133Z,8.90
2023-05-01T08:08:09.871Z,7.88
2023-05-01T08:10:37.308Z,12.15
2023-05-01T08:13:04.709Z,6.55
2023-05-01T08:15:31.986Z,7.95
2023-05-01T08:17:59.291Z,5.77
2023-05-01T08:20:26.691Z,8.30
2023-05-01T08:22:54.075Z,7.47
2023-05-01T08:25:21.396Z,7.25
2023-05-01T08:27:48.845Z,9.93
2023-05-01T08:30:16.175Z,8.70
2023-05-01T08:32:43.541Z,8.48
2023-05-01T08:35:11.161Z,7.70
2023-05-01T08:37:38.462Z,6.40
2023-05-01T08:40:09.100Z,7.60
2023-05-01T08:42:40.183Z,6.70
2023-05-01T08:45:08.986Z,11.43
2023-05-01T08:47:40.507Z,9.25
2023-05-01T08:50:14.397Z,8.65
2023-05-01T08:52:43.219Z,6.50
2023-05-01T08:55:14.879Z,9.67
2023-05-01T08:57:46.687Z,12.70
2023-05-01T09:00:22.994Z,9.13
2023-05-01T09:02:51.008Z,6.55
2023-05-01T09:05:18.994Z,7.70
2023-05-01T09:07:46.806Z,10.07
2023-05-01T09:10:14.975Z,5.47
2023-05-01T09:12:44.941Z,10.63
2023-05-01T09:15:12.794Z,9.77
2023-05-01T09:17:40.900Z,9.18
2023-05-01T09:20:08.662Z,7.93
2023-05-01T09:22:36.636Z,6.53
2023-05-01T09:25:04.372Z,11.27
2023-05-01T09:27:35.988Z,12.95
2023-05-01T09:30:03.580Z,14.43
2023-05-01T09:32:31.192Z,10.63
2023-05-01T09:35:11.776Z,9.25
2023-05-01T09:37:39.753Z,10.43
2023-05-01T09:40:10.941Z,10.30
2023-05-01T09:42:39.550Z,7.45
2023-05-01T09:45:07.982Z,7.67
2023-05-01T09:47:35.284Z,9.15
2023-05-01T09:50:02.616Z,6.38
2023-05-01T09:52:31.357Z,10.75
2023-05-01T09:55:15.108Z,8.68
2023-05-01T09:57:46.187Z,17.73
2023-05-01T10:00:14.650Z,10.35
2023-05-01T10:02:42.576Z,7.57
2023-05-01T10:05:10.354Z,9.05
2023-05-01T10:07:38.056Z,11.90
2023-05-01T10:10:22.003Z,9.20
2023-05-01T10:12:49.724Z,8.90
2023-05-01T10:15:25.618Z,9.77
2023-05-01T10:17:54.950Z,8.90
2023-05-01T10:20:22.520Z,8.02
2023-05-01T10:22:50.043Z,7.53
2023-05-01T10:25:18.379Z,5.93
2023-05-01T10:27:45.720Z,8.27
2023-05-01T10:30:13.164Z,11.10
2023-05-01T10:32:43.426Z,8.20
2023-05-01T10:35:15.977Z,9.93
2023-05-01T10:37:51.423Z,6.32
2023-05-01T10:40:37.552Z,5.97
2023-05-01T10:43:30.586Z,6.85
2023-05-01T10:46:10.302Z,9.25
2023-05-01T10:48:40.948Z,8.17
2023-05-01T10:51:09.616Z,10.55
2023-05-01T10:53:37.024Z,5.55
2023-05-01T10:56:05.952Z,5.20
2023-05-01T10:58:39.359Z,8.15
2023-05-01T11:01:25.598Z,8.57
2023-05-01T11:03:52.926Z,8.18
2023-05-01T11:06:20.357Z,9.38
2023-05-01T11:08:47.854Z,9.23
2023-05-01T11:11:21.503Z,6.68
2023-05-01T11:14:11.327Z,8.40
2023-05-01T11:16:44.480Z,6.68
2023-05-01T11:19:13.009Z,8.45
2023-05-01T11:21:41.959Z,7.18
2023-05-01T11:24:09.626Z,6.95
2023-05-01T11:26:39.832Z,10.07
2023-05-01T11:29:07.967Z,9.93
2023-05-01T11:31:35.824Z,8.55
2023-05-01T11:34:04.151Z,9.68
2023-05-01T11:36:48.537Z,8.70
2023-05-01T11:39:19.492Z,9.33
2023-05-01T11:41:47.244Z,8.32
2023-05-01T11:44:16.658Z,7.35
2023-05-01T11:46:44.056Z,7.60
2023-05-01T11:49:11.793Z,10.98
2023-05-01T11:51:39.156Z,7.53
2023-05-01T11:54:07.412Z,12.07
2023-05-01T11:56:35.434Z,7.78
2023-05-01T11:59:13.246Z,7.15
2023-05-01T12:01:41.360Z,9.07
2023-05-01T12:04:09.141Z,7.17
2023-05-01T12:06:40.694Z,8.25
2023-05-01T12:09:08.966Z,8.10
2023-05-01T12:11:36.486Z,8.32
2023-05-01T12:14:04.253Z,6.40
2023-05-01T12:16:32.354Z,7.40
2023-05-01T12:19:00.138Z,10.57
2023-05-01T12:21:28.121Z,10.57
2023-05-01T12:23:56.137Z,7.97
2023-05-01T12:26:25.188Z,7.88
2023-05-01T12:29:00.113Z,8.63
2023-05-01T12:31:27.966Z,8.35
2023-05-01T12:33:59.029Z,9.13
2023-05-01T12:36:28.223Z,9.25
2023-05-01T12:39:00.722Z,11.45
2023-05-01T12:41:37.199Z,7.33
2023-05-01T12:44:24.834Z,10.85
2023-05-01T12:46:56.452Z,8.10
2023-05-01T12:49:24.403Z,13.07
2023-05-01T12:51:52.850Z,7.55
2023-05-01T12:54:24.587Z,7.37
2023-05-01T12:56:55.377Z,11.68
2023-05-01T12:59:23.919Z,9.23
2023-05-01T13:01:59.068Z,8.15
2023-05-01T13:04:27.354Z,8.60
2023-05-01T13:06:57.769Z,8.60
2023-05-01T13:09:27.341Z,8.00
2023-05-01T13:11:57.358Z,9.82
2023-05-01T13:14:24.714Z,8.90
2023-05-01T13:16:52.439Z,10.30
2023-05-01T13:19:28.416Z,9.60
2023-05-01T13:21:58.859Z,10.38
2023-05-01T13:24:36.624Z,12.35
2023-05-01T13:27:06.510Z,9.52
2023-05-01T13:29:33.976Z,9.95
2023-05-01T13:32:01.610Z,11.57
2023-05-01T13:34:35.047Z,6.45
2023-05-01T13:37:02.944Z,8.40
2023-05-01T13:39:30.369Z,10.20
2023-05-01T13:41:57.706Z,10.65
2023-05-01T13:44:25.085Z,12.40
2023-05-01T13:46:52.433Z,8.70
2023-05-01T13:49:22.843Z,10.02
2023-05-01T13:51:51.027Z,9.18
2023-05-01T13:54:19.327Z,9.35
2023-05-01T13:56:46.899Z,8.20
2023-05-01T13:59:14.337Z,8.95
2023-05-01T14:01:43.008Z,12.75
2023-05-01T14:04:11.727Z,9.10
2023-05-01T14:06:45.873Z,9.93
2023-05-01T14:09:13.932Z,10.07
2023-05-01T14:11:42.490Z,7.00
2023-05-01T14:14:10.529Z,8.75
2023-05-01T14:16:41.881Z,9.45
2023-05-01T14:19:09.608Z,8.63
2023-05-01T14:21:41.412Z,8.27
2023-05-01T14:24:09.521Z,5.93
2023-05-01T14:26:40.700Z,8.00
2023-05-01T14:29:08.873Z,5.70
2023-05-01T14:31:36.621Z,4.45
2023-05-01T14:34:04.832Z,5.13
2023-05-01T14:36:33.030Z,5.78
2023-05-01T14:39:01.417Z,5.93
2023-05-01T14:41:30.034Z,4.72
2023-05-01T14:43:57.659Z,7.72
2023-05-01T14:46:32.410Z,7.00
2023-05-01T14:49:01.030Z,6.85
2023-05-01T14:51:29.030Z,8.20
2023-05-01T14:53:56.402Z,6.78
2023-05-01T14:56:24.075Z,5.65
2023-05-01T14:58:51.536Z,9.13
2023-05-01T15:01:19.846Z,5.03
2023-05-01T15:03:47.412Z,10.55
2023-05-01T15:06:14.958Z,6.30
2023-05-01T15:08:42.495Z,3.22
2023-05-01T15:11:09.809Z,3.53
2023-05-01T15:13:37.129Z,4.80
2023-05-01T15:16:04.601Z,4.63
2023-05-01T15:18:32.008Z,4.50
2023-05-01T15:20:59.307Z,4.15
2023-05-01T15:23:27.463Z,9.07
2023-05-01T15:25:55.166Z,5.35
2023-05-01T15:28:22.630Z,6.38
2023-05-01T15:30:50.033Z,5.32
2023-05-01T15:33:19.263Z,4.93
2023-05-01T15:35:48.738Z,5.23
2023-05-01T15:38:16.239Z,4.93
2023-05-01T15:40:43.944Z,6.43
2023-05-01T15:43:11.272Z,4.90
2023-05-01T15:45:43.659Z,5.00
2023-05-01T15:48:12.074Z,6.30
2023-05-01T15:50:39.502Z,6.40
2023-05-01T15:53:06.826Z,5.95
2023-05-01T15:55:34.822Z,6.28
2023-05-01T15:58:02.915Z,5.72
2023-05-01T16:00:31.284Z,5.73
2023-05-01T16:02:58.707Z,6.07
2023-05-01T16:05:26.103Z,6.55
2023-05-01T16:07:58.261Z,7.93
2023-05-01T16:10:27.893Z,7.10
2023-05-01T16:12:55.290Z,8.03
2023-05-01T16:15:23.006Z,7.63
2023-05-01T16:17:51.544Z,8.35
2023-05-01T16:20:19.037Z,7.80
2023-05-01T16:22:46.588Z,7.57
2023-05-01T16:25:14.737Z,8.63
2023-05-01T16:27:46.247Z,8.70
2023-05-01T16:30:16.989Z,7.63
2023-05-01T16:32:45.087Z,9.63
2023-05-01T16:35:15.366Z,7.40
2023-05-01T16:37:42.755Z,10.80
2023-05-01T16:40:10.449Z,8.15
2023-05-01T16:42:38.860Z,8.63
2023-05-01T16:45:08.768Z,9.07
2023-05-01T16:47:36.502Z,8.60
2023-05-01T16:50:05.098Z,8.83
2023-05-01T16:52:32.518Z,9.43
2023-05-01T16:55:01.823Z,8.80
2023-05-01T16:57:29.353Z,8.38
2023-05-01T16:59:56.903Z,9.82
2023-05-01T17:02:24.329Z,8.43
2023-05-01T17:04:51.948Z,9.68
2023-05-01T17:07:19.417Z,8.30
2023-05-01T17:09:46.690Z,10.00
2023-05-01T17:12:14.091Z,8.65
2023-05-01T17:14:41.451Z,11.73
2023-05-01T17:17:09.634Z,9.73
2023-05-01T17:19:39.006Z,10.00
2023-05-01T17:22:07.009Z,11.23
2023-05-01T17:24:35.727Z,10.77
2023-05-01T17:27:06.318Z,10.10
2023-05-01T17:29:33.682Z,11.38
2023-05-01T17:32:01.115Z,11.65
2023-05-01T17:34:28.538Z,11.88
2023-05-01T17:36:57.814Z,10.40
2023-05-01T17:39:27.550Z,13.73
2023-05-01T17:41:55.413Z,11.52
2023-05-01T17:44:22.750Z,14.63
2023-05-01T17:46:50.274Z,13.48
2023-05-01T17:49:17.593Z,12.25
2023-05-01T17:51:45.383Z,12.80
2023-05-01T17:54:12.899Z,14.20
2023-05-01T17:56:40.289Z,15.15
2023-05-01T17:59:07.668Z,16.95
2023-05-01T18:01:35.426Z,17.73
2023-05-01T18:04:02.898Z,15.53
2023-05-01T18:06:32.415Z,17.40
2023-05-01T18:08:59.775Z,19.75
2023-05-01T18:11:27.600Z,18.33
2023-05-01T18:13:54.914Z,17.40
2023-05-01T18:16:23.476Z,19.37
2023-05-01T18:18:51.013Z,19.67
2023-05-01T18:21:18.365Z,19.70
2023-05-01T18:23:48.394Z,19.42
2023-05-01T18:26:16.692Z,19.33
2023-05-01T18:28:44.083Z,17.83
2023-05-01T18:31:11.464Z,18.73
2023-05-01T18:33:39.333Z,19.33
2023-05-01T18:36:06.882Z,18.20
2023-05-01T18:38:34.364Z,20.83
2023-05-01T18:41:01.862Z,23.67
2023-05-01T18:43:29.263Z,25.13
2023-05-01T18:45:56.723Z,26.95
2023-05-01T18:48:24.280Z,27.15
2023-05-01T18:51:01.249Z,25.50
2023-05-01T18:53:35.010Z,26.50
2023-05-01T18:56:02.340Z,26.60
2023-05-01T18:58:30.197Z,28.33
2023-05-01T19:00:57.470Z,27.60
2023-05-01T19:03:24.742Z,30.85
2023-05-01T19:05:52.058Z,28.20
2023-05-01T19:08:19.348Z,28.65
2023-05-01T19:10:46.645Z,31.30
2023-05-01T19:13:15.198Z,28.48
2023-05-01T19:15:43.643Z,29.83
2023-05-01T19:18:11.134Z,28.73
2023-05-01T19:20:38.703Z,31.20
2023-05-01T19:23:06.072Z,30.83
2023-05-01T19:25:34.266Z,32.78
2023-05-01T19:28:02.171Z,29.45
2023-05-01T19:30:29.595Z,28.90
2023-05-01T19:32:58.290Z,30.27
2023-05-01T19:35:25.768Z,30.20
2023-05-01T19:37:56.638Z,30.42
2023-05-01T19:40:23.960Z,23.33
2023-05-01T19:42:51.450Z,29.83
2023-05-01T19:45:18.838Z,28.08
2023-05-01T19:47:46.370Z,25.15
2023-05-01T19:50:13.753Z,25.13
2023-05-01T19:52:41.132Z,24.13
2023-05-01T19:55:08.833Z,26.13
2023-05-01T19:57:36.201Z,24.58
2023-05-01T20:00:03.612Z,25.40
2023-05-01T20:02:37.441Z,26.90
2023-05-01T20:05:05.514Z,26.55
2023-05-01T20:07:32.821Z,24.10
2023-05-01T20:10:00.553Z,23.00
2023-05-01T20:12:28.344Z,30.05
2023-05-01T20:14:55.769Z,30.98
2023-05-01T20:17:23.206Z,29.80
2023-05-01T20:19:50.559Z,26.83
2023-05-01T20:22:17.846Z,25.40
2023-05-01T20:24:45.195Z,25.77
2023-05-01T20:27:12.548Z,28.42
2023-05-01T20:29:41.059Z,28.30
2023-05-01T20:32:08.586Z,27.80
2023-05-01T20:34:35.976Z,29.65
2023-05-01T20:37:03.944Z,31.38
2023-05-01T20:39:31.322Z,31.17
2023-05-01T20:41:59.373Z,33.13
2023-05-01T20:44:26.685Z,32.00
2023-05-01T20:46:54.032Z,33.53
2023-05-01T20:49:21.550Z,30.15
2023-05-01T20:51:49.008Z,31.23
2023-05-01T20:54:16.418Z,28.73
2023-05-01T20:56:43.762Z,31.43
2023-05-01T20:59:11.144Z,28.13
2023-05-01T21:01:38.428Z,33.47
2023-05-01T21:04:06.440Z,29.00
2023-05-01T21:06:34.088Z,33.00
2023-05-01T21:09:02.010Z,31.43
2023-05-01T21:11:29.330Z,30.95
2023-05-01T21:13:58.401Z,26.02
2023-05-01T21:16:28.084Z,25.23
2023-05-01T21:18:55.563Z,30.23
2023-05-01T21:21:24.900Z,27.93
2023-05-01T21:23:52.301Z,27.73
2023-05-01T21:26:19.790Z,31.77
2023-05-01T21:28:47.221Z,28.23
2023-05-01T21:31:14.623Z,30.35
2023-05-01T21:33:45.790Z,26.27
2023-05-01T21:36:14.003Z,27.17
2023-05-01T21:38:41.294Z,26.08
2023-05-01T21:41:09.291Z,24.77
2023-05-01T21:43:36.595Z,24.85
2023-05-01T21:46:03.979Z,26.87
2023-05-01T21:48:33.733Z,23.90
2023-05-01T21:51:01.128Z,22.15
2023-05-01T21:53:29.898Z,22.25
2023-05-01T21:55:57.270Z,24.25
2023-05-01T21:58:25.053Z,21.20
2023-05-01T22:00:52.810Z,23.73
2023-05-01T22:03:20.595Z,22.58
2023-05-01T22:05:47.983Z,25.02
2023-05-01T22:08:15.226Z,24.13
2023-05-01T22:10:43.088Z,29.30
2023-05-01T22:13:11.471Z,27.20
2023-05-01T22:15:38.765Z,27.45
2023-05-01T22:18:06.130Z,25.80
2023-05-01T22:20:33.530Z,23.75
2023-05-01T22:23:01.038Z,24.50
2023-05-01T22:25:28.734Z,25.95
2023-05-01T22:27:56.143Z,22.83
2023-05-01T22:30:23.488Z,23.77
2023-05-01T22:32:50.859Z,25.80
2023-05-01T22:35:18.255Z,25.57
2023-05-01T22:37:45.620Z,21.23
2023-05-01T22:40:13.110Z,23.48
2023-05-01T22:42:40.379Z,22.98
2023-05-01T22:45:08.515Z,21.88
2023-05-01T22:47:35.937Z,21.43
2023-05-01T22:50:03.355Z,23.13
2023-05-01T22:52:30.764Z,22.73
2023-05-01T22:54:58.094Z,21.38
2023-05-01T22:57:26.284Z,20.42
2023-05-01T22:59:53.629Z,22.50
2023-05-01T23:02:21.126Z,20.45
2023-05-01T23:04:48.616Z,20.85
2023-05-01T23:07:16.055Z,18.58
2023-05-01T23:09:43.419Z,19.80
2023-05-01T23:12:25.656Z,16.77
2023-05-01T23:14:53.095Z,21.15
2023-05-01T23:17:21.115Z,18.15
2023-05-01T23:19:48.647Z,21.70
2023-05-01T23:22:16.019Z,19.02
2023-05-01T23:24:50.855Z,17.47
2023-05-01T23:27:19.353Z,19.95
2023-05-01T23:29:53.940Z,16.15
2023-05-01T23:32:26.384Z,15.48
2023-05-01T23:34:54.271Z,15.88
2023-05-01T23:37:22.017Z,17.13
2023-05-01T23:39:49.378Z,15.80
2023-05-01T23:42:16.837Z,16.30
2023-05-01T23:44:44.304Z,15.32
2023-05-01T23:47:11.842Z,17.65
2023-05-01T23:49:39.398Z,16.03
2023-05-01T23:52:07.088Z,15.43
2023-05-01T23:54:34.451Z,18.92
2023-05-01T23:57:02.540Z,18.33
2023-05-01T23:59:29.965Z,15.98
